Lloyd, Florida
Current Conditions -  °F | °C
As of 1:53 PM on Friday 21 Nov 2014 (Local Time) from KTLH Reporting Station
Few Clouds Few Clouds  
Wind Chill: 72°   Ceiling: Unl
Heat Index: 72°   Visibility: 10mi
Dew Point: 37°   Wind: 8mph
Humidity: 28%   Direction: 50°NE
Pressure: 30.3"   Gusts: NA
Location:  30.48°N, 84.02°W
Report Text: KTLH 211853Z 05007KT 020V080 10SM FEW250 22/03 A3030 RMK AO2 SLP259 T02220028 $
Loading
Personal Weather Stations






























Interactive Weather Map New forecast layout! Learn more

10-Day Weather Forecast

Advertisements
Track Severe Weather on mobile